Time;durP1;ratioP1;P1;durP2;ratioP2;P2;SDS_P1;SDS_P2;PMS_P1;PMS_P2;Temp;Humidity;BMP_temperature;BMP_pressure;BME280_temperature;BME280_humidity;BME280_pressure;Samples;Min_cycle;Max_cycle;Signal;HPM_P1;HPM_P2
2023/09/04 00:00:56;;;;;;;6.13;4.18;;;;;;;19.79;71.39;102887.97;5034122;28;20156;-80
2023/09/04 00:03:22;;;;;;;5.60;4.25;;;;;;;19.76;71.34;102882.69;5035607;28;20048;-79
2023/09/04 00:05:48;;;;;;;5.45;4.20;;;;;;;19.73;71.42;102880.88;5033543;28;20026;-79
2023/09/04 00:08:14;;;;;;;5.40;4.22;;;;;;;19.78;71.25;102880.91;5041950;28;20037;-79
2023/09/04 00:10:39;;;;;;;6.03;4.30;;;;;;;19.73;71.39;102874.72;5051494;28;20052;-78
2023/09/04 00:13:14;;;;;;;6.25;4.90;;;;;;;19.51;72.69;102873.66;5049705;28;20112;-80
2023/09/04 00:15:39;;;;;;;6.25;4.43;;;;;;;19.62;71.92;102871.09;5038155;28;20029;-79
2023/09/04 00:18:08;;;;;;;6.28;4.40;;;;;;;19.64;72.09;102874.66;5035495;28;20029;-80
2023/09/04 00:20:33;;;;;;;6.53;4.60;;;;;;;19.64;71.84;102867.56;5037135;28;20057;-81
2023/09/04 00:22:59;;;;;;;5.80;4.30;;;;;;;19.63;71.77;102871.13;5028272;28;20052;-79
2023/09/04 00:25:24;;;;;;;5.82;4.40;;;;;;;19.64;71.81;102872.00;5047601;28;20044;-80
2023/09/04 00:27:50;;;;;;;5.78;4.43;;;;;;;19.63;71.73;102873.75;5034783;28;20021;-79
2023/09/04 00:30:15;;;;;;;6.32;4.50;;;;;;;19.67;71.19;102872.00;5051101;28;20044;-79
2023/09/04 00:32:46;;;;;;;5.53;4.22;;;;;;;19.66;71.04;102883.47;5036887;28;20033;-80
2023/09/04 00:35:13;;;;;;;5.85;4.10;;;;;;;19.60;71.17;102879.03;5037911;28;20112;-80
2023/09/04 00:37:48;;;;;;;5.93;4.35;;;;;;;19.58;71.17;102879.91;5040710;28;20045;-80
2023/09/04 00:40:16;;;;;;;6.22;4.35;;;;;;;19.54;71.17;102878.09;5042955;28;20053;-80
2023/09/04 00:42:44;;;;;;;6.40;4.15;;;;;;;19.52;71.31;102879.84;5051268;28;20033;-79
2023/09/04 00:45:11;;;;;;;7.13;4.80;;;;;;;19.41;71.40;102885.88;5049521;28;20038;-81
2023/09/04 00:47:42;;;;;;;5.40;4.32;;;;;;;19.40;71.37;102897.31;5049555;28;20026;-80
2023/09/04 00:50:11;;;;;;;5.28;4.20;;;;;;;19.35;71.47;102880.53;5063410;28;20033;-80
2023/09/04 00:52:42;;;;;;;7.18;5.00;;;;;;;19.32;71.26;102882.28;5051262;28;20031;-80
2023/09/04 00:55:09;;;;;;;8.35;5.00;;;;;;;19.22;71.79;102886.56;5051487;28;20059;-79
2023/09/04 00:57:35;;;;;;;5.70;4.70;;;;;;;19.17;71.95;102871.53;5049101;28;20036;-78
2023/09/04 01:00:12;;;;;;;7.68;4.85;;;;;;;19.15;71.87;102879.44;5040651;28;20025;-78
2023/09/04 01:02:44;;;;;;;6.70;5.30;;;;;;;19.08;72.31;102877.66;5045611;28;20060;-80
2023/09/04 01:05:09;;;;;;;7.28;4.80;;;;;;;19.15;71.87;102874.16;5047279;28;20568;-80
2023/09/04 01:07:35;;;;;;;7.88;5.18;;;;;;;19.09;71.98;102876.75;5052327;28;20010;-80
2023/09/04 01:10:04;;;;;;;7.70;5.20;;;;;;;19.02;72.47;102872.28;5041514;28;21278;-80
2023/09/04 01:12:51;;;;;;;6.90;5.07;;;;;;;19.00;72.32;102876.66;5038205;28;20098;-79
2023/09/04 01:15:30;;;;;;;6.65;4.78;;;;;;;18.99;72.40;102877.53;5039019;28;20037;-80
2023/09/04 01:17:56;;;;;;;6.80;5.10;;;;;;;19.00;72.39;102868.75;5039290;28;20033;-80
2023/09/04 01:20:24;;;;;;;7.03;5.00;;;;;;;19.01;72.36;102878.44;5041066;28;20030;-79
2023/09/04 01:22:51;;;;;;;7.10;5.10;;;;;;;19.01;72.14;102875.81;5043022;28;20110;-79
2023/09/04 01:25:16;;;;;;;7.32;5.25;;;;;;;18.97;72.54;102871.34;5049219;28;20037;-80
2023/09/04 01:28:06;;;;;;;6.80;5.10;;;;;;;18.94;72.67;102864.28;5067257;28;20034;-79
2023/09/04 01:30:46;;;;;;;6.40;5.03;;;;;;;18.90;72.78;102870.41;5053632;28;20487;-79
2023/09/04 01:33:15;;;;;;;7.13;5.05;;;;;;;18.92;72.87;102862.47;5051852;28;20022;-79
2023/09/04 01:35:44;;;;;;;8.77;5.30;;;;;;;18.95;72.61;102862.53;5051788;28;20095;-80
2023/09/04 01:38:12;;;;;;;8.00;5.45;;;;;;;18.93;72.79;102861.63;5052648;28;20034;-79
2023/09/04 01:40:38;;;;;;;7.03;5.00;;;;;;;18.93;72.64;102864.25;5056153;28;20048;-78
2023/09/04 01:43:09;;;;;;;8.48;5.50;;;;;;;18.88;73.02;102866.84;5053604;28;20033;-79
2023/09/04 01:45:44;;;;;;;7.53;5.03;;;;;;;18.85;73.03;102865.91;5050161;28;20038;-79
2023/09/04 01:48:12;;;;;;;7.30;5.57;;;;;;;18.77;73.38;102863.22;5052933;28;20034;-78
2023/09/04 01:50:38;;;;;;;7.47;5.10;;;;;;;18.83;72.91;102859.75;5050276;28;20075;-77
2023/09/04 01:53:04;;;;;;;6.80;4.95;;;;;;;18.83;72.76;102863.28;5053028;28;20045;-79
2023/09/04 01:55:29;;;;;;;8.10;5.57;;;;;;;18.74;73.23;102865.81;5049638;28;20120;-78
2023/09/04 01:57:58;;;;;;;8.25;5.63;;;;;;;18.79;73.08;102863.22;5039439;28;20149;-79
2023/09/04 02:00:23;;;;;;;6.82;5.00;;;;;;;18.77;72.56;102859.69;5036380;28;20029;-79
2023/09/04 02:02:49;;;;;;;7.40;5.53;;;;;;;18.72;72.97;102869.31;5036000;28;20039;-79
2023/09/04 02:05:15;;;;;;;9.27;5.60;;;;;;;18.69;73.13;102869.28;5036230;28;20030;-78
2023/09/04 02:07:43;;;;;;;7.22;5.25;;;;;;;18.68;72.95;102863.09;5035990;28;20094;-79
2023/09/04 02:10:12;;;;;;;8.55;5.82;;;;;;;18.64;73.29;102864.81;5035226;28;20029;-80
2023/09/04 02:12:37;;;;;;;10.18;5.63;;;;;;;18.64;73.17;102864.81;5039562;28;20045;-79
2023/09/04 02:15:03;;;;;;;8.75;5.60;;;;;;;18.68;73.18;102859.56;5046082;28;20026;-80
2023/09/04 02:17:28;;;;;;;8.18;6.00;;;;;;;18.69;73.21;102861.34;5051821;28;20033;-80
2023/09/04 02:19:54;;;;;;;9.30;6.43;;;;;;;18.66;72.95;102851.66;5047353;28;20045;-79
2023/09/04 02:22:19;;;;;;;7.85;5.93;;;;;;;18.73;72.70;102848.19;5047665;28;20067;-80
2023/09/04 02:24:47;;;;;;;7.82;5.85;;;;;;;18.69;72.72;102851.66;5048325;28;20038;-80
2023/09/04 02:27:13;;;;;;;8.13;5.80;;;;;;;18.66;72.79;102853.41;5047048;28;20045;-79
2023/09/04 02:29:41;;;;;;;7.32;5.55;;;;;;;18.70;72.57;102860.47;5037382;28;20045;-78
2023/09/04 02:32:06;;;;;;;7.68;5.50;;;;;;;18.63;72.71;102852.47;5036459;28;20673;-79
2023/09/04 02:34:32;;;;;;;6.55;5.30;;;;;;;18.61;72.56;102854.22;5033681;28;20037;-79
2023/09/04 02:37:04;;;;;;;9.85;5.78;;;;;;;18.58;72.55;102845.38;5040626;28;20045;-79
2023/09/04 02:39:29;;;;;;;7.10;5.40;;;;;;;18.59;72.51;102848.03;5050429;28;20089;-80
2023/09/04 02:41:54;;;;;;;8.45;5.90;;;;;;;18.55;72.82;102835.66;5035773;28;20037;-80
2023/09/04 02:44:23;;;;;;;7.30;5.50;;;;;;;18.55;72.63;102835.66;5035942;28;20040;-80
2023/09/04 02:46:48;;;;;;;7.82;6.00;;;;;;;18.51;72.88;102819.72;5038492;28;20399;-80
2023/09/04 02:49:19;;;;;;;9.55;6.40;;;;;;;18.48;72.86;102815.28;5038734;28;20030;-79
2023/09/04 02:51:48;;;;;;;9.43;6.10;;;;;;;18.44;73.10;102812.59;5044599;28;20025;-80
2023/09/04 02:54:13;;;;;;;8.50;6.10;;;;;;;18.44;72.63;102808.19;5039797;28;20030;-80
2023/09/04 02:56:38;;;;;;;8.23;5.78;;;;;;;18.39;72.88;102812.53;5050602;28;20040;-80
2023/09/04 02:59:10;;;;;;;9.95;6.15;;;;;;;18.35;73.12;102815.13;5034268;28;20041;-80
2023/09/04 03:01:35;;;;;;;7.60;5.72;;;;;;;18.36;73.13;102812.50;5033771;28;20491;-80
2023/09/04 03:04:00;;;;;;;8.52;5.85;;;;;;;18.35;73.13;102812.50;5035754;28;20033;-80
2023/09/04 03:06:26;;;;;;;8.20;5.85;;;;;;;18.32;73.22;102815.97;5048810;28;20039;-81
2023/09/04 03:08:54;;;;;;;9.13;5.85;;;;;;;18.28;73.24;102810.63;5046603;28;20520;-80
2023/09/04 03:11:25;;;;;;;9.20;6.07;;;;;;;18.29;73.19;102812.41;5050720;28;20120;-80
2023/09/04 03:13:51;;;;;;;7.40;5.88;;;;;;;18.26;73.10;102807.97;5047196;28;20057;-80
2023/09/04 03:16:19;;;;;;;8.00;5.80;;;;;;;18.23;73.25;102807.94;5055087;28;20193;-78
2023/09/04 03:18:45;;;;;;;8.50;6.10;;;;;;;18.17;73.17;102803.47;5034964;28;20095;-79
2023/09/04 03:21:10;;;;;;;9.10;6.60;;;;;;;18.09;73.88;102791.94;5050049;28;20471;-81
2023/09/04 03:23:35;;;;;;;9.43;5.95;;;;;;;18.16;73.50;102800.81;5035961;28;20033;-79
2023/09/04 03:26:01;;;;;;;8.90;6.22;;;;;;;18.15;73.49;102806.97;5037457;28;20037;-81
2023/09/04 03:28:26;;;;;;;8.25;5.80;;;;;;;18.14;73.45;102805.19;5039967;28;20029;-80
2023/09/04 03:30:58;;;;;;;9.10;6.10;;;;;;;18.12;73.74;102804.25;5047442;28;20463;-80
2023/09/04 03:33:23;;;;;;;8.32;6.25;;;;;;;18.12;73.61;102805.16;5047289;28;20089;-80
2023/09/04 03:35:48;;;;;;;8.32;6.20;;;;;;;18.15;73.56;102802.56;5037949;28;20570;-80
2023/09/04 03:38:18;;;;;;;9.63;6.32;;;;;;;18.15;73.49;102793.75;5034636;28;20033;-80
2023/09/04 03:40:43;;;;;;;8.73;6.38;;;;;;;18.09;73.77;102799.84;5032802;28;20112;-79
2023/09/04 03:43:08;;;;;;;8.43;6.22;;;;;;;18.05;74.13;102792.72;5033685;28;20057;-80
2023/09/04 03:45:35;;;;;;;9.18;6.50;;;;;;;18.07;74.09;102795.41;5032971;28;20029;-80
2023/09/04 03:48:01;;;;;;;8.75;6.32;;;;;;;18.07;74.04;102791.00;5031772;28;20033;-81
2023/09/04 03:50:29;;;;;;;8.38;6.00;;;;;;;18.08;74.03;102792.78;5031144;28;20045;-80
2023/09/04 03:52:54;;;;;;;9.98;5.97;;;;;;;18.13;74.16;102785.81;5044846;28;20037;-80
2023/09/04 03:55:23;;;;;;;9.18;6.22;;;;;;;18.12;74.27;102778.75;5049866;28;20020;-79
2023/09/04 03:57:51;;;;;;;8.05;6.00;;;;;;;18.10;74.02;102772.59;5051897;28;20029;-80
2023/09/04 04:00:17;;;;;;;8.98;6.35;;;;;;;18.11;73.78;102773.47;5034039;28;20045;-80
2023/09/04 04:02:43;;;;;;;8.45;5.97;;;;;;;18.13;73.51;102780.53;5034697;28;20034;-80
2023/09/04 04:05:11;;;;;;;7.43;5.40;;;;;;;18.13;73.47;102777.00;5035773;28;20025;-80
2023/09/04 04:07:40;;;;;;;8.85;6.22;;;;;;;18.13;73.46;102782.28;5035340;28;20033;-80
2023/09/04 04:10:12;;;;;;;8.80;6.30;;;;;;;18.10;73.54;102782.25;5035346;28;20461;-80
2023/09/04 04:12:38;;;;;;;8.88;6.38;;;;;;;18.09;73.51;102786.66;5035029;28;20036;-79
2023/09/04 04:15:06;;;;;;;9.40;6.50;;;;;;;18.09;73.44;102786.66;5037962;28;20084;-80
2023/09/04 04:17:33;;;;;;;7.10;5.68;;;;;;;18.00;73.63;102794.44;5044047;28;20040;-80
2023/09/04 04:19:58;;;;;;;7.90;5.88;;;;;;;17.95;73.70;102793.50;5043695;28;20034;-80
2023/09/04 04:22:24;;;;;;;10.05;6.10;;;;;;;18.01;73.35;102793.56;5043234;28;20081;-80
2023/09/04 04:24:55;;;;;;;8.20;5.93;;;;;;;17.98;73.33;102796.19;5067191;28;20045;-79
2023/09/04 04:27:22;;;;;;;7.75;5.60;;;;;;;17.98;73.39;102785.63;5047434;28;20059;-80
2023/09/04 04:29:52;;;;;;;7.30;5.53;;;;;;;17.99;73.21;102786.53;5049577;28;20041;-81
2023/09/04 04:32:17;;;;;;;7.93;5.93;;;;;;;17.95;73.24;102790.84;5049735;28;20033;-81
2023/09/04 04:34:45;;;;;;;8.85;5.78;;;;;;;17.93;73.42;102787.28;5047457;28;20072;-81
2023/09/04 04:37:14;;;;;;;10.65;6.28;;;;;;;17.86;73.59;102788.09;5061350;28;20037;-79
2023/09/04 04:39:39;;;;;;;7.22;5.50;;;;;;;17.86;73.38;102787.22;5042899;28;20040;-80
2023/09/04 04:42:11;;;;;;;8.23;5.88;;;;;;;17.86;73.31;102787.22;5039377;28;20121;-81
2023/09/04 04:44:39;;;;;;;10.05;6.38;;;;;;;17.88;73.15;102793.38;5035961;28;20398;-78
2023/09/04 04:47:06;;;;;;;7.90;5.82;;;;;;;17.80;73.41;102804.75;5036352;28;20048;-80
2023/09/04 04:49:31;;;;;;;8.48;5.80;;;;;;;17.77;73.70;102796.75;5037309;28;20526;-81
2023/09/04 04:51:57;;;;;;;8.40;6.38;;;;;;;17.72;73.57;102795.81;5035969;28;20033;-80
2023/09/04 04:54:22;;;;;;;8.85;5.68;;;;;;;17.67;73.70;102805.41;5026233;28;20040;-79
2023/09/04 04:56:50;;;;;;;9.27;6.72;;;;;;;17.68;73.79;102801.94;5036812;28;20037;-80
2023/09/04 04:59:16;;;;;;;8.75;5.95;;;;;;;17.72;73.72;102792.28;5040682;28;20048;-80
2023/09/04 05:01:42;;;;;;;7.78;5.85;;;;;;;17.67;73.59;102789.59;5038540;28;20082;-81
2023/09/04 05:04:07;;;;;;;7.65;5.60;;;;;;;17.67;73.50;102789.59;5038121;28;20085;-81
2023/09/04 05:06:39;;;;;;;8.85;6.15;;;;;;;17.64;73.69;102786.91;5054680;28;20105;-83
2023/09/04 05:09:10;;;;;;;8.43;5.65;;;;;;;17.71;73.44;102782.59;5039658;28;20025;-82
2023/09/04 05:11:42;;;;;;;8.88;5.47;;;;;;;17.76;73.52;102786.19;5041717;28;20097;-81
2023/09/04 05:14:16;;;;;;;11.88;6.25;;;;;;;17.63;74.16;102777.19;5045898;28;20056;-81
2023/09/04 05:16:43;;;;;;;7.57;5.80;;;;;;;17.68;74.07;102777.28;5047189;28;20036;-82
2023/09/04 05:19:12;;;;;;;9.00;6.15;;;;;;;17.74;74.14;102790.56;5048155;28;20045;-82
2023/09/04 05:21:40;;;;;;;9.05;6.13;;;;;;;17.79;74.08;102789.78;5060375;28;20034;-80
2023/09/04 05:24:11;;;;;;;8.05;5.82;;;;;;;17.77;74.52;102791.50;5054244;28;20092;-79
2023/09/04 05:26:40;;;;;;;9.18;6.20;;;;;;;17.85;74.40;102794.25;5047977;28;20045;-81
2023/09/04 05:29:11;;;;;;;9.23;6.55;;;;;;;17.96;74.16;102794.38;5050919;28;20033;-81
2023/09/04 05:31:37;;;;;;;7.90;5.90;;;;;;;18.04;74.08;102785.72;5050021;28;20363;-79
2023/09/04 05:34:02;;;;;;;11.98;6.78;;;;;;;17.97;74.67;102790.88;5048337;28;20026;-81
2023/09/04 05:36:28;;;;;;;12.82;6.95;;;;;;;17.93;74.35;102789.94;5045792;28;20034;-82
2023/09/04 05:38:54;;;;;;;10.90;7.50;;;;;;;18.10;74.81;102787.53;5048282;28;20045;-83
2023/09/04 05:41:25;;;;;;;9.15;6.50;;;;;;;18.15;74.52;102785.84;5052665;28;20044;-80
2023/09/04 05:43:51;;;;;;;10.27;6.63;;;;;;;18.18;74.76;102786.75;5054914;28;20033;-81
2023/09/04 05:46:19;;;;;;;11.80;6.57;;;;;;;18.34;74.51;102779.03;5053448;28;20067;-81
2023/09/04 05:48:44;;;;;;;11.60;6.95;;;;;;;18.42;74.23;102772.94;5048523;28;20053;-81
2023/09/04 05:51:10;;;;;;;9.77;7.18;;;;;;;18.56;74.27;102778.41;5048153;28;20084;-79
2023/09/04 05:53:41;;;;;;;10.10;6.63;;;;;;;18.58;73.91;102774.06;5055528;28;20053;-79
2023/09/04 05:56:11;;;;;;;10.30;7.10;;;;;;;18.64;73.23;102772.38;5056046;28;20025;-79
2023/09/04 05:59:05;;;;;;;9.18;7.03;;;;;;;18.76;72.83;102766.31;5047537;28;20060;-81
2023/09/04 06:01:36;;;;;;;11.17;7.47;;;;;;;18.78;72.39;102764.59;5034721;28;20022;-83
2023/09/04 06:04:02;;;;;;;8.40;6.70;;;;;;;18.91;72.13;102771.72;5047832;28;20064;-83
2023/09/04 06:06:30;;;;;;;10.45;7.32;;;;;;;19.10;71.85;102774.53;5050361;28;20029;-79
2023/09/04 06:08:56;;;;;;;12.05;7.18;;;;;;;19.19;71.31;102758.75;5051043;28;20047;-81
2023/09/04 06:11:21;;;;;;;9.70;7.15;;;;;;;19.20;70.86;102768.47;5044110;28;20116;-81
2023/09/04 06:13:48;;;;;;;9.43;7.03;;;;;;;19.32;70.81;102769.44;5052450;28;20483;-80
2023/09/04 06:16:29;;;;;;;9.57;7.20;;;;;;;19.48;70.62;102769.56;5053091;28;20439;-82
2023/09/04 06:18:54;;;;;;;9.25;7.25;;;;;;;19.57;70.17;102772.28;5040203;28;20052;-81
2023/09/04 06:21:23;;;;;;;10.27;7.55;;;;;;;19.52;69.61;102763.44;5049694;28;20033;-80
2023/09/04 06:23:51;;;;;;;9.52;7.10;;;;;;;19.76;69.60;102764.44;5048344;28;20017;-82
2023/09/04 06:26:16;;;;;;;8.85;6.82;;;;;;;19.84;69.14;102769.78;5047823;28;20045;-80
2023/09/04 06:28:42;;;;;;;10.75;6.63;;;;;;;19.98;69.45;102765.44;5050658;28;20041;-82
2023/09/04 06:31:07;;;;;;;9.98;7.18;;;;;;;20.12;68.98;102761.13;5050695;28;20037;-80
2023/09/04 06:33:37;;;;;;;9.25;6.47;;;;;;;20.60;69.93;102760.41;5053564;28;20064;-79
2023/09/04 06:36:04;;;;;;;9.18;6.75;;;;;;;21.34;66.99;102762.22;5050365;28;20041;-78
2023/09/04 06:38:33;;;;;;;9.73;7.47;;;;;;;22.41;62.27;102756.56;5048965;28;20101;-79
2023/09/04 06:41:01;;;;;;;10.80;8.00;;;;;;;23.42;59.15;102754.91;5050535;28;20029;-81
2023/09/04 06:43:28;;;;;;;12.63;8.45;;;;;;;24.30;55.18;102750.34;5051494;28;20037;-79
2023/09/04 06:45:58;;;;;;;12.75;8.80;;;;;;;25.13;49.76;102751.72;5044252;28;20037;-81
2023/09/04 06:48:24;;;;;;;13.88;9.15;;;;;;;25.34;47.13;102748.66;5043746;28;20033;-83
2023/09/04 06:50:52;;;;;;;11.82;9.10;;;;;;;25.66;48.03;102755.22;5044325;28;20096;-82
2023/09/04 06:53:33;;;;;;;11.23;9.13;;;;;;;26.07;47.77;102754.38;5044346;28;20512;-84
2023/09/04 06:55:59;;;;;;;12.07;8.07;;;;;;;26.50;47.23;102743.63;5044178;28;20182;-81
2023/09/04 06:58:26;;;;;;;11.48;8.13;;;;;;;27.62;43.55;102745.25;5062015;28;20029;-82
2023/09/04 07:01:05;;;;;;;12.60;8.40;;;;;;;28.27;40.64;102745.13;5051911;28;20014;-81
2023/09/04 07:03:31;;;;;;;11.65;7.50;;;;;;;28.22;41.26;102747.97;5056568;28;20026;-81
2023/09/04 07:05:56;;;;;;;13.85;8.13;;;;;;;29.11;37.99;102748.66;5052522;28;20057;-80
2023/09/04 07:08:22;;;;;;;12.18;7.88;;;;;;;29.25;37.22;102746.38;5049276;28;20037;-83
2023/09/04 07:10:48;;;;;;;10.65;8.80;;;;;;;28.19;40.10;102746.25;5046720;28;20038;-83
2023/09/04 07:13:14;;;;;;;13.50;8.00;;;;;;;29.14;38.06;102749.44;5044665;28;20096;-82
2023/09/04 07:15:40;;;;;;;10.85;8.60;;;;;;;29.03;37.10;102748.94;5043982;28;20123;-83
2023/09/04 07:18:09;;;;;;;10.80;8.30;;;;;;;29.41;37.59;102743.09;5060659;28;20037;-82
2023/09/04 07:20:40;;;;;;;12.55;8.43;;;;;;;28.82;38.81;102742.47;5045886;28;20493;-83
2023/09/04 07:23:06;;;;;;;11.32;8.05;;;;;;;28.88;38.08;102739.59;5044142;28;20555;-84
2023/09/04 07:25:34;;;;;;;10.25;7.97;;;;;;;28.82;39.25;102736.22;5044133;28;20025;-82
2023/09/04 07:28:00;;;;;;;11.63;8.55;;;;;;;28.24;39.29;102741.59;5041077;28;20132;-83
2023/09/04 07:30:28;;;;;;;12.20;9.02;;;;;;;27.62;40.91;102735.41;5038098;28;20057;-81
2023/09/04 07:32:53;;;;;;;14.50;9.43;;;;;;;27.33;42.49;102729.94;5036953;28;20041;-82
2023/09/04 07:35:19;;;;;;;14.32;9.80;;;;;;;27.27;43.09;102733.66;5045314;28;20032;-81
2023/09/04 07:37:44;;;;;;;12.30;9.20;;;;;;;27.21;43.67;102732.94;5037851;28;20044;-80
2023/09/04 07:40:10;;;;;;;14.55;9.00;;;;;;;27.38;43.60;102738.75;5040842;28;20037;-80
2023/09/04 07:42:36;;;;;;;13.90;9.68;;;;;;;27.17;43.76;102734.84;5033125;28;20038;-81
2023/09/04 07:45:02;;;;;;;12.30;9.82;;;;;;;27.16;43.15;102738.44;5041949;28;20029;-83
2023/09/04 07:47:27;;;;;;;11.43;8.60;;;;;;;27.13;43.84;102738.53;5045504;28;20043;-82
2023/09/04 07:49:58;;;;;;;14.00;9.57;;;;;;;26.91;44.23;102743.53;5044534;28;20042;-82
2023/09/04 07:52:24;;;;;;;15.45;9.38;;;;;;;26.37;45.18;102737.69;5047329;28;20064;-78
2023/09/04 07:54:50;;;;;;;15.23;10.57;;;;;;;25.63;46.41;102745.47;5046907;28;20030;-80
2023/09/04 07:57:19;;;;;;;13.93;9.68;;;;;;;25.30;48.60;102746.09;5049883;28;20029;-80
2023/09/04 07:59:44;;;;;;;14.73;9.63;;;;;;;25.01;50.21;102759.91;5050947;28;20042;-81
2023/09/04 08:02:13;;;;;;;13.35;10.52;;;;;;;24.69;50.64;102763.09;5050210;28;20076;-81
2023/09/04 08:04:38;;;;;;;16.10;10.55;;;;;;;24.45;50.90;102766.13;5046300;28;20059;-82
2023/09/04 08:07:05;;;;;;;12.70;9.75;;;;;;;24.61;50.89;102754.31;5044343;28;20049;-81
2023/09/04 08:09:30;;;;;;;17.05;11.13;;;;;;;23.90;52.49;102766.81;5049077;28;20033;-80
2023/09/04 08:11:58;;;;;;;15.15;10.02;;;;;;;23.98;53.14;102764.94;5051474;28;20057;-81
2023/09/04 08:14:33;;;;;;;14.10;10.30;;;;;;;24.05;53.94;102768.41;5049402;28;20021;-80
2023/09/04 08:16:58;;;;;;;16.23;10.88;;;;;;;24.17;53.42;102769.13;5050399;28;20033;-80
2023/09/04 08:19:26;;;;;;;16.85;10.77;;;;;;;24.40;53.37;102766.19;5053348;28;20025;-80
2023/09/04 08:21:52;;;;;;;17.08;10.90;;;;;;;24.50;53.55;102770.50;5050806;28;20038;-82
2023/09/04 08:24:20;;;;;;;13.98;11.02;;;;;;;24.58;53.27;102768.56;5049303;28;20014;-82
2023/09/04 08:26:45;;;;;;;16.02;11.45;;;;;;;24.46;53.20;102766.09;5047661;28;20033;-80
2023/09/04 08:29:11;;;;;;;14.93;11.15;;;;;;;24.62;52.75;102759.66;5047085;28;20123;-81
2023/09/04 08:31:42;;;;;;;14.88;11.10;;;;;;;24.55;53.75;102757.09;5045214;28;20045;-81
2023/09/04 08:34:14;;;;;;;15.10;10.18;;;;;;;24.72;53.84;102756.81;5043095;28;20092;-80
2023/09/04 08:36:39;;;;;;;14.70;11.38;;;;;;;24.29;53.82;102762.78;5045149;28;20033;-81
2023/09/04 08:39:08;;;;;;;13.18;10.50;;;;;;;24.54;55.23;102757.97;5047253;28;20371;-82
2023/09/04 08:41:34;;;;;;;15.23;10.95;;;;;;;24.44;54.25;102759.03;5046121;28;20044;-80
2023/09/04 08:44:13;;;;;;;15.38;10.60;;;;;;;24.65;53.73;102756.91;5048062;28;20033;-82
2023/09/04 08:46:40;;;;;;;14.15;11.43;;;;;;;24.56;53.75;102748.19;5045858;28;20029;-80
2023/09/04 08:49:06;;;;;;;15.75;11.77;;;;;;;24.16;55.02;102751.38;5048128;28;20091;-83
2023/09/04 08:51:31;;;;;;;15.63;11.60;;;;;;;24.61;54.92;102751.66;5049011;28;20037;-82
2023/09/04 08:54:00;;;;;;;14.15;11.02;;;;;;;24.71;54.23;102747.94;5050923;28;20022;-79
2023/09/04 08:56:35;;;;;;;14.68;11.32;;;;;;;24.58;55.17;102741.03;5053414;28;20014;-80
2023/09/04 08:59:04;;;;;;;15.15;11.43;;;;;;;24.83;54.35;102738.84;5047664;28;20044;-80
2023/09/04 09:01:33;;;;;;;15.65;11.63;;;;;;;24.63;55.12;102739.19;5051933;28;20030;-81
2023/09/04 09:04:02;;;;;;;14.23;10.60;;;;;;;24.99;54.76;102738.63;5050145;28;20191;-81
2023/09/04 09:06:31;;;;;;;15.82;11.05;;;;;;;25.13;55.51;102726.84;5054712;28;20084;-81
2023/09/04 09:09:00;;;;;;;17.08;12.05;;;;;;;24.90;54.79;102727.22;5051839;28;20048;-80
2023/09/04 09:11:26;;;;;;;18.65;12.35;;;;;;;24.56;54.60;102726.84;5056824;28;20026;-79
2023/09/04 09:13:51;;;;;;;14.73;11.55;;;;;;;24.65;54.77;102729.34;5053724;28;20117;-80
2023/09/04 09:16:23;;;;;;;15.63;12.43;;;;;;;24.32;55.47;102719.22;5051841;28;20093;-80
2023/09/04 09:18:49;;;;;;;18.33;12.52;;;;;;;24.78;55.15;102722.94;5053593;28;20033;-79
2023/09/04 09:21:29;;;;;;;16.90;11.48;;;;;;;25.29;53.85;102730.97;5053305;28;20057;-78
2023/09/04 09:24:07;;;;;;;13.88;11.32;;;;;;;25.40;53.68;102724.53;5051010;28;20044;-81
2023/09/04 09:26:44;;;;;;;17.23;11.70;;;;;;;25.26;53.70;102720.34;5049687;28;20060;-83
2023/09/04 09:29:13;;;;;;;16.85;11.60;;;;;;;25.08;54.98;102712.66;5049117;28;20159;-82
2023/09/04 09:31:41;;;;;;;16.75;12.10;;;;;;;25.20;54.13;102721.34;5049140;28;20026;-81
2023/09/04 09:34:10;;;;;;;15.52;11.23;;;;;;;25.53;54.09;102719.81;5057330;28;20033;-78
2023/09/04 09:36:36;;;;;;;16.45;10.90;;;;;;;25.81;54.54;102715.72;5057118;28;20016;-81
2023/09/04 09:39:05;;;;;;;18.65;11.20;;;;;;;25.68;53.92;102718.66;5058807;28;20033;-80
2023/09/04 09:41:31;;;;;;;15.38;10.35;;;;;;;25.95;53.12;102711.88;5058497;28;20120;-79
2023/09/04 09:44:03;;;;;;;12.48;9.90;;;;;;;25.82;53.04;102716.59;5053989;28;20037;-81
2023/09/04 09:46:30;;;;;;;15.07;10.48;;;;;;;25.87;52.04;102714.69;5054920;28;20063;-80
2023/09/04 09:48:59;;;;;;;18.13;10.75;;;;;;;25.98;51.75;102715.38;5051723;28;20053;-82
2023/09/04 09:51:32;;;;;;;13.48;10.50;;;;;;;26.08;53.13;102711.56;5048524;28;20025;-81
2023/09/04 09:53:57;;;;;;;14.88;10.48;;;;;;;25.84;53.21;102699.63;5048870;28;20072;-79
2023/09/04 09:56:23;;;;;;;13.98;10.23;;;;;;;26.26;52.82;102699.63;5048484;28;20101;-82
2023/09/04 09:58:52;;;;;;;17.08;9.57;;;;;;;26.32;53.15;102701.28;5047943;28;20105;-81
2023/09/04 10:01:18;;;;;;;14.00;10.30;;;;;;;26.13;51.62;102698.97;5047380;28;20100;-82
2023/09/04 10:03:46;;;;;;;13.57;10.40;;;;;;;26.30;51.54;102695.06;5046883;28;20037;-80
2023/09/04 10:06:33;;;;;;;13.77;9.90;;;;;;;26.58;51.32;102699.75;5048941;28;20401;-80
2023/09/04 10:09:00;;;;;;;12.82;9.10;;;;;;;26.86;50.67;102691.00;5048731;28;20043;-81
2023/09/04 10:11:32;;;;;;;11.63;9.45;;;;;;;26.78;51.25;102676.94;5047634;28;20040;-81
2023/09/04 10:14:24;;;;;;;14.00;10.68;;;;;;;26.60;51.49;102675.59;5048943;28;20179;-81
2023/09/04 10:16:54;;;;;;;12.10;9.45;;;;;;;26.87;52.00;102668.69;5049561;28;20037;-80
2023/09/04 10:19:30;;;;;;;13.10;9.82;;;;;;;27.08;51.81;102669.97;5049526;28;20038;-79
2023/09/04 10:22:18;;;;;;;15.88;10.32;;;;;;;26.70;53.54;102669.13;5051050;28;20112;-80
2023/09/04 10:24:48;;;;;;;14.85;10.10;;;;;;;27.22;51.34;102671.31;5047084;28;20057;-79
2023/09/04 10:30:05;;;;;;;14.00;10.18;;;;;;;27.32;50.62;102663.94;5036738;28;20052;-80
2023/09/04 10:32:31;;;;;;;16.20;10.40;;;;;;;27.54;50.75;102657.06;5046759;28;20073;-80
2023/09/04 10:35:01;;;;;;;15.70;10.38;;;;;;;27.62;51.78;102659.50;5049285;28;20029;-81
2023/09/04 10:37:29;;;;;;;13.25;9.73;;;;;;;27.71;51.06;102661.91;4978657;28;20048;-81
2023/09/04 10:39:56;;;;;;;11.27;8.80;;;;;;;27.65;49.88;102654.03;5039627;28;20037;-81
2023/09/04 10:42:27;;;;;;;9.52;7.25;;;;;;;27.83;49.19;102651.69;5050150;28;20033;-80
2023/09/04 10:45:11;;;;;;;9.90;7.57;;;;;;;27.84;49.56;102647.22;5048892;28;20093;-81
2023/09/04 10:47:50;;;;;;;11.30;8.48;;;;;;;27.74;48.66;102648.44;5048728;28;20072;-80
2023/09/04 10:50:38;;;;;;;9.77;8.10;;;;;;;27.65;48.40;102646.88;5044294;28;20044;-82
2023/09/04 10:53:06;;;;;;;9.50;7.45;;;;;;;27.63;48.46;102645.19;5047507;28;20507;-80
2023/09/04 10:55:33;;;;;;;10.93;7.72;;;;;;;27.98;47.40;102646.78;5045443;28;20034;-81
2023/09/04 10:58:17;;;;;;;9.45;7.40;;;;;;;27.61;47.05;102655.06;5042813;28;20030;-80
2023/09/04 11:00:44;;;;;;;10.55;8.10;;;;;;;27.60;48.39;102647.94;5042030;28;20415;-80
2023/09/04 11:03:21;;;;;;;11.50;8.18;;;;;;;27.92;47.13;102652.34;5034914;28;20025;-79
2023/09/04 11:06:01;;;;;;;11.45;8.30;;;;;;;27.90;48.09;102643.47;5031927;28;20037;-78
2023/09/04 11:08:30;;;;;;;12.43;7.90;;;;;;;27.94;47.93;102642.44;5042574;28;20573;-79
2023/09/04 11:11:04;;;;;;;9.60;7.57;;;;;;;27.76;48.08;102633.16;5041349;28;20045;-80
2023/09/04 11:13:33;;;;;;;10.25;6.60;;;;;;;27.70;46.69;102638.69;5060310;28;20025;-81
2023/09/04 11:16:03;;;;;;;9.98;7.00;;;;;;;27.70;47.30;102639.59;5041691;28;20498;-81
2023/09/04 11:18:29;;;;;;;10.38;7.20;;;;;;;27.65;47.49;102630.81;5044380;28;20482;-80
2023/09/04 11:20:59;;;;;;;9.45;6.80;;;;;;;27.63;46.90;102629.97;5037176;28;20050;-80
2023/09/04 11:23:28;;;;;;;8.82;6.65;;;;;;;28.01;45.29;102636.84;5045322;28;20044;-80
2023/09/04 11:25:55;;;;;;;8.55;6.47;;;;;;;28.12;44.41;102633.81;5042546;28;20033;-80
2023/09/04 11:28:29;;;;;;;8.80;5.50;;;;;;;28.34;43.77;102634.91;5042814;28;20114;-80